Time;durP1;ratioP1;P1;durP2;ratioP2;P2;SDS_P1;SDS_P2;PMS_P1;PMS_P2;Temp;Humidity;BMP_temperature;BMP_pressure;BME280_temperature;BME280_humidity;BME280_pressure;Samples;Min_cycle;Max_cycle;Signal;HPM_P1;HPM_P2
2022/08/06 00:00:49;;;;;;;6.18;4.57;;;;;;;;;;10200877;28;20046;-62
2022/08/06 00:05:50;;;;;;;10.07;4.72;;;;;;;;;;10200064;28;20082;-61
2022/08/06 00:10:51;;;;;;;8.18;4.43;;;;;;;;;;10198417;28;20050;-61
2022/08/06 00:15:50;;;;;;;9.00;5.10;;;;;;;;;;10199336;28;20046;-60
2022/08/06 00:21:08;;;;;;;4.95;4.25;;;;;;;;;;10198591;28;20057;-61
2022/08/06 00:26:28;;;;;;;5.10;3.45;;;;;;;;;;10199430;28;20058;-61
2022/08/06 00:31:27;;;;;;;5.45;4.03;;;;;;;;;;10199656;28;20112;-62
2022/08/06 00:36:28;;;;;;;4.40;4.00;;;;;;;;;;10198122;28;20119;-62
2022/08/06 00:41:31;;;;;;;6.40;3.70;;;;;;;;;;10198591;28;20088;-62
2022/08/06 00:46:43;;;;;;;11.52;5.50;;;;;;;;;;10197904;28;20054;-61
2022/08/06 00:51:42;;;;;;;7.15;5.13;;;;;;;;;;10197831;28;20766;-61
2022/08/06 00:56:50;;;;;;;6.30;4.57;;;;;;;;;;10197813;28;20038;-61
2022/08/06 01:01:49;;;;;;;5.40;4.15;;;;;;;;;;10197658;28;20049;-61
2022/08/06 01:06:48;;;;;;;10.05;5.00;;;;;;;;;;10197379;28;20077;-62
2022/08/06 01:11:56;;;;;;;4.97;4.40;;;;;;;;;;10196646;28;20077;-61
2022/08/06 01:16:59;;;;;;;7.22;4.80;;;;;;;;;;10196412;28;20060;-61
2022/08/06 01:22:10;;;;;;;7.15;4.47;;;;;;;;;;10196599;28;20066;-61
2022/08/06 01:27:37;;;;;;;8.70;4.38;;;;;;;;;;10196547;28;20078;-61
2022/08/06 01:32:41;;;;;;;5.68;3.92;;;;;;;;;;10163399;28;20484;-62
2022/08/06 01:37:44;;;;;;;10.33;4.03;;;;;;;;;;10155362;28;20046;-61
2022/08/06 01:42:47;;;;;;;6.37;5.27;;;;;;;;;;10156098;28;20049;-61
2022/08/06 01:47:53;;;;;;;4.47;4.07;;;;;;;;;;10155945;28;20047;-62
2022/08/06 01:52:52;;;;;;;6.60;4.30;;;;;;;;;;10155484;28;20181;-61
2022/08/06 01:58:00;;;;;;;6.50;4.35;;;;;;;;;;10155263;28;20506;-61
2022/08/06 02:03:19;;;;;;;4.65;4.25;;;;;;;;;;10155540;28;20085;-61
2022/08/06 02:08:20;;;;;;;5.60;4.87;;;;;;;;;;10156250;28;20065;-61
2022/08/06 02:13:39;;;;;;;6.75;5.35;;;;;;;;;;10155872;28;20483;-61
2022/08/06 02:18:45;;;;;;;6.30;5.35;;;;;;;;;;10154936;28;20046;-61
2022/08/06 02:23:48;;;;;;;8.82;5.05;;;;;;;;;;10154102;28;20515;-61
2022/08/06 02:28:49;;;;;;;8.45;4.95;;;;;;;;;;10154469;28;20070;-60
2022/08/06 02:33:50;;;;;;;7.15;5.68;;;;;;;;;;10154367;28;20557;-61
2022/08/06 02:39:11;;;;;;;8.70;5.95;;;;;;;;;;10155285;28;20484;-61
2022/08/06 02:44:15;;;;;;;10.70;5.32;;;;;;;;;;10154346;28;20053;-60
2022/08/06 02:49:17;;;;;;;10.95;6.05;;;;;;;;;;10154663;28;20085;-60
2022/08/06 02:54:24;;;;;;;7.22;5.43;;;;;;;;;;10154697;28;20080;-61
2022/08/06 02:59:29;;;;;;;11.18;6.18;;;;;;;;;;10154150;28;20149;-60
2022/08/06 03:04:38;;;;;;;7.37;6.23;;;;;;;;;;10153950;28;20069;-60
2022/08/06 03:09:47;;;;;;;7.72;5.43;;;;;;;;;;10162345;28;20057;-60
2022/08/06 03:14:51;;;;;;;9.70;6.32;;;;;;;;;;10161728;28;20070;-60
2022/08/06 03:20:07;;;;;;;10.85;6.00;;;;;;;;;;10161366;28;20069;-60
2022/08/06 03:25:16;;;;;;;10.50;6.05;;;;;;;;;;10162110;28;20054;-60
2022/08/06 03:30:18;;;;;;;8.50;4.97;;;;;;;;;;10161682;28;20050;-60
2022/08/06 03:35:30;;;;;;;8.85;5.47;;;;;;;;;;10161474;28;20142;-60
2022/08/06 03:40:48;;;;;;;12.45;4.82;;;;;;;;;;10161124;28;20051;-60
2022/08/06 03:45:51;;;;;;;9.15;5.25;;;;;;;;;;10160572;28;20042;-60
2022/08/06 03:50:55;;;;;;;10.98;5.93;;;;;;;;;;10160913;28;20632;-60
2022/08/06 03:55:56;;;;;;;10.27;6.50;;;;;;;;;;10160585;28;20054;-60
2022/08/06 04:01:00;;;;;;;15.65;8.05;;;;;;;;;;10159668;28;20088;-60
2022/08/06 04:06:01;;;;;;;9.48;6.28;;;;;;;;;;10160605;28;20046;-61
2022/08/06 04:11:01;;;;;;;7.72;6.68;;;;;;;;;;10160069;28;20050;-60
2022/08/06 04:16:04;;;;;;;11.57;6.40;;;;;;;;;;10158991;28;20053;-61
2022/08/06 04:21:05;;;;;;;9.95;6.35;;;;;;;;;;10159189;28;20066;-60
2022/08/06 04:26:27;;;;;;;12.57;5.80;;;;;;;;;;10159964;28;20050;-62
2022/08/06 04:31:29;;;;;;;9.43;6.33;;;;;;;;;;10159889;28;20054;-61
2022/08/06 04:36:48;;;;;;;13.02;6.15;;;;;;;;;;10157471;28;20058;-62
2022/08/06 04:41:51;;;;;;;10.00;5.93;;;;;;;;;;10158643;28;20047;-59
2022/08/06 04:46:59;;;;;;;7.28;6.32;;;;;;;;;;10158360;28;20077;-62
2022/08/06 04:51:58;;;;;;;9.52;6.43;;;;;;;;;;10158415;28;20086;-60
2022/08/06 04:57:16;;;;;;;8.75;7.10;;;;;;;;;;10157744;28;20496;-60
2022/08/06 05:02:26;;;;;;;9.45;6.20;;;;;;;;;;10157799;28;20049;-60
2022/08/06 05:07:28;;;;;;;8.63;6.57;;;;;;;;;;10157754;28;20523;-60
2022/08/06 05:12:49;;;;;;;11.88;6.72;;;;;;;;;;10157166;28;20456;-60
2022/08/06 05:17:51;;;;;;;9.18;7.57;;;;;;;;;;10157269;28;20085;-60
2022/08/06 05:22:50;;;;;;;9.65;6.90;;;;;;;;;;10170214;28;20085;-61
2022/08/06 05:27:52;;;;;;;16.02;7.78;;;;;;;;;;10194697;28;20551;-61
2022/08/06 05:33:07;;;;;;;11.13;6.70;;;;;;;;;;10195833;28;20088;-60
2022/08/06 05:38:06;;;;;;;11.65;6.57;;;;;;;;;;10196059;28;20519;-60
2022/08/06 05:43:08;;;;;;;9.02;6.72;;;;;;;;;;10174075;28;20542;-61
2022/08/06 05:48:09;;;;;;;8.48;6.45;;;;;;;;;;10178653;28;20066;-61
2022/08/06 05:53:10;;;;;;;8.13;7.30;;;;;;;;;;10189335;28;20069;-60
2022/08/06 05:58:11;;;;;;;;;;;;;;;;;;10174098;28;20037;-60
2022/08/06 06:03:12;;;;;;;13.32;8.57;;;;;;;;;;10175046;28;19950;-61
2022/08/06 06:08:30;;;;;;;10.35;7.68;;;;;;;;;;10172469;28;20528;-61
2022/08/06 06:13:38;;;;;;;9.25;8.30;;;;;;;;;;10155074;28;20073;-61
2022/08/06 06:19:05;;;;;;;12.63;11.43;;;;;;;;;;10149922;28;20093;-61
2022/08/06 06:24:15;;;;;;;18.48;15.13;;;;;;;;;;10148764;28;20173;-62
2022/08/06 06:29:19;;;;;;;15.10;11.50;;;;;;;;;;10164368;28;20596;-60
2022/08/06 06:34:51;;;;;;;13.25;8.20;;;;;;;;;;10147967;28;20073;-60
2022/08/06 06:39:55;;;;;;;7.65;6.72;;;;;;;;;;10179957;28;20069;-61
2022/08/06 06:44:59;;;;;;;11.52;7.05;;;;;;;;;;10168783;28;20054;-61
2022/08/06 06:50:11;;;;;;;11.63;8.27;;;;;;;;;;10174711;28;20065;-61
2022/08/06 06:55:24;;;;;;;10.15;8.23;;;;;;;;;;10161506;28;20090;-61
2022/08/06 07:00:43;;;;;;;12.57;8.80;;;;;;;;;;10166273;28;20046;-61
2022/08/06 07:06:03;;;;;;;13.57;12.18;;;;;;;;;;10168959;28;20073;-61
2022/08/06 07:11:08;;;;;;;9.60;7.80;;;;;;;;;;10158359;28;20066;-60
2022/08/06 07:16:07;;;;;;;9.27;7.47;;;;;;;;;;10147469;28;20070;-61
2022/08/06 07:21:07;;;;;;;7.93;7.10;;;;;;;;;;10159562;28;20464;-60
2022/08/06 07:26:11;;;;;;;10.40;7.32;;;;;;;;;;10133124;28;20081;-60
2022/08/06 07:31:12;;;;;;;7.45;5.43;;;;;;;;;;10159348;28;20043;-61
2022/08/06 07:36:14;;;;;;;7.03;5.38;;;;;;;;;;10157026;28;20129;-60
2022/08/06 07:41:14;;;;;;;14.00;6.53;;;;;;;;;;10176351;28;20131;-60
2022/08/06 07:46:32;;;;;;;7.97;5.70;;;;;;;;;;10156269;28;20534;-59
2022/08/06 07:51:34;;;;;;;9.52;6.25;;;;;;;;;;10173935;28;20069;-59
2022/08/06 07:56:41;;;;;;;6.72;5.32;;;;;;;;;;10174710;28;20098;-59
2022/08/06 08:01:59;;;;;;;9.95;5.60;;;;;;;;;;10166487;28;20076;-60
2022/08/06 08:07:00;;;;;;;5.68;4.97;;;;;;;;;;10178845;28;20076;-60
2022/08/06 08:11:59;;;;;;;5.28;4.70;;;;;;;;;;10169812;28;20522;-60
2022/08/06 08:17:17;;;;;;;15.23;5.18;;;;;;;;;;10163236;28;20432;-60
2022/08/06 08:22:33;;;;;;;5.13;4.30;;;;;;;;;;10154855;28;20547;-60
2022/08/06 08:27:44;;;;;;;5.40;4.63;;;;;;;;;;10155517;28;20058;-59
2022/08/06 08:32:43;;;;;;;4.68;4.25;;;;;;;;;;10156083;28;20073;-62
2022/08/06 08:37:45;;;;;;;6.00;4.65;;;;;;;;;;10151280;28;20359;-60
2022/08/06 08:42:47;;;;;;;;;;;;;;;;;;10149141;28;20073;-60
2022/08/06 08:47:47;;;;;;;4.45;4.05;;;;;;;;;;10151368;28;19957;-61
2022/08/06 08:52:58;;;;;;;6.57;4.15;;;;;;;;;;10156010;28;20078;-60
2022/08/06 08:57:57;;;;;;;8.07;5.35;;;;;;;;;;10157749;28;20057;-60
2022/08/06 09:03:15;;;;;;;7.43;5.10;;;;;;;;;;10154789;28;20465;-60
2022/08/06 09:08:17;;;;;;;7.25;5.40;;;;;;;;;;10156667;28;20085;-61
2022/08/06 09:13:35;;;;;;;5.90;4.75;;;;;;;;;;10155731;28;20491;-61
2022/08/06 09:18:48;;;;;;;;;;;;;;;;;;10157047;28;20065;-61
2022/08/06 09:23:48;;;;;;;7.57;4.22;;;;;;;;;;10156151;28;19949;-59
2022/08/06 09:28:55;;;;;;;5.90;5.20;;;;;;;;;;10155648;28;20077;-61
2022/08/06 09:33:54;;;;;;;7.63;4.82;;;;;;;;;;10153670;28;20309;-60
2022/08/06 09:39:14;;;;;;;9.20;6.28;;;;;;;;;;10155467;28;20050;-61
2022/08/06 09:44:20;;;;;;;10.80;5.10;;;;;;;;;;10154754;28;20065;-61
2022/08/06 09:49:44;;;;;;;6.03;5.43;;;;;;;;;;10155087;28;20488;-61
2022/08/06 09:54:58;;;;;;;6.07;5.47;;;;;;;;;;10154492;28;20088;-60
2022/08/06 09:59:58;;;;;;;6.72;4.28;;;;;;;;;;10154834;28;20078;-61
2022/08/06 10:05:06;;;;;;;9.88;4.50;;;;;;;;;;10154177;28;20073;-60
2022/08/06 10:10:16;;;;;;;7.35;5.53;;;;;;;;;;10152701;28;20103;-60
2022/08/06 10:15:34;;;;;;;6.45;5.28;;;;;;;;;;10153138;28;20078;-60
2022/08/06 10:21:00;;;;;;;10.18;5.95;;;;;;;;;;10153592;28;20369;-61
2022/08/06 10:26:07;;;;;;;7.03;5.15;;;;;;;;;;10154456;28;20073;-61
2022/08/06 10:31:08;;;;;;;7.63;5.78;;;;;;;;;;10153471;28;20064;-61
2022/08/06 10:36:09;;;;;;;16.40;5.38;;;;;;;;;;10154011;28;20539;-60
2022/08/06 10:41:14;;;;;;;7.82;6.20;;;;;;;;;;10153733;28;20093;-60
2022/08/06 10:46:33;;;;;;;6.20;4.30;;;;;;;;;;10153458;28;20089;-60
2022/08/06 10:51:32;;;;;;;6.50;4.60;;;;;;;;;;10153177;28;20078;-61
2022/08/06 10:56:53;;;;;;;5.32;4.50;;;;;;;;;;10151566;28;20069;-61
2022/08/06 11:01:58;;;;;;;5.68;5.07;;;;;;;;;;10152768;28;20074;-61
2022/08/06 11:07:13;;;;;;;8.00;4.68;;;;;;;;;;10152224;28;20520;-60
2022/08/06 11:12:37;;;;;;;4.40;4.00;;;;;;;;;;10152419;28;20082;-61
2022/08/06 11:17:44;;;;;;;5.25;4.18;;;;;;;;;;10153556;28;20070;-61
2022/08/06 11:22:42;;;;;;;4.60;4.20;;;;;;;;;;10151442;28;20086;-61
2022/08/06 11:28:01;;;;;;;6.90;4.47;;;;;;;;;;10155705;28;20062;-61
2022/08/06 11:33:03;;;;;;;5.50;4.57;;;;;;;;;;10158957;28;20070;-61
2022/08/06 11:38:01;;;;;;;4.88;4.30;;;;;;;;;;10160348;28;20097;-60
2022/08/06 11:43:34;;;;;;;7.18;4.57;;;;;;;;;;10159140;28;20527;-60
2022/08/06 11:49:11;;;;;;;5.50;4.53;;;;;;;;;;10160042;28;20484;-61
2022/08/06 11:54:18;;;;;;;5.57;4.28;;;;;;;;;;10158864;28;20084;-59
2022/08/06 11:59:25;;;;;;;5.63;4.32;;;;;;;;;;10159329;28;20051;-60
2022/08/06 12:04:42;;;;;;;11.45;4.35;;;;;;;;;;10159424;28;20462;-60
2022/08/06 12:09:42;;;;;;;7.57;5.03;;;;;;;;;;10159954;28;20077;-61
2022/08/06 12:14:41;;;;;;;6.10;4.30;;;;;;;;;;10158825;28;20461;-61
2022/08/06 12:19:48;;;;;;;6.97;5.32;;;;;;;;;;10158620;28;20085;-61
2022/08/06 12:25:03;;;;;;;8.50;4.20;;;;;;;;;;10156749;28;20050;-60
2022/08/06 12:30:10;;;;;;;5.35;4.15;;;;;;;;;;10159131;28;20463;-60
2022/08/06 12:35:10;;;;;;;5.18;4.72;;;;;;;;;;10158090;28;20073;-61
2022/08/06 12:40:27;;;;;;;6.47;4.60;;;;;;;;;;10156778;28;20380;-61
2022/08/06 12:45:35;;;;;;;7.63;4.57;;;;;;;;;;10158061;28;20096;-61
2022/08/06 12:51:01;;;;;;;5.55;4.25;;;;;;;;;;10156892;28;20436;-60
2022/08/06 12:56:11;;;;;;;6.45;4.20;;;;;;;;;;10157056;28;20074;-61
2022/08/06 13:01:28;;;;;;;5.10;4.03;;;;;;;;;;10156919;28;20123;-61
2022/08/06 13:06:47;;;;;;;5.00;4.15;;;;;;;;;;10156279;28;20066;-61
2022/08/06 13:11:48;;;;;;;5.72;4.35;;;;;;;;;;10157012;28;20120;-61
2022/08/06 13:16:49;;;;;;;8.60;5.13;;;;;;;;;;10155987;28;20081;-61
2022/08/06 13:21:58;;;;;;;7.28;4.53;;;;;;;;;;10154756;28;20570;-60
2022/08/06 13:26:58;;;;;;;5.88;5.28;;;;;;;;;;10155731;28;20042;-61
2022/08/06 13:32:04;;;;;;;8.32;3.97;;;;;;;;;;10155389;28;20073;-62
2022/08/06 13:37:42;;;;;;;4.57;4.10;;;;;;;;;;10154941;28;20081;-59
2022/08/06 13:42:55;;;;;;;7.60;4.82;;;;;;;;;;10155432;28;20081;-60
2022/08/06 13:48:01;;;;;;;5.50;4.03;;;;;;;;;;10155026;28;20069;-60
2022/08/06 13:53:05;;;;;;;10.05;5.22;;;;;;;;;;10153372;28;20066;-61
2022/08/06 13:58:06;;;;;;;6.65;5.32;;;;;;;;;;10154374;28;20515;-60
2022/08/06 14:03:05;;;;;;;5.32;4.28;;;;;;;;;;10154820;28;20077;-61
2022/08/06 14:08:10;;;;;;;5.07;3.63;;;;;;;;;;10155057;28;20078;-60
2022/08/06 14:13:17;;;;;;;6.18;4.32;;;;;;;;;;10154573;28;20070;-61
2022/08/06 14:18:19;;;;;;;4.13;3.80;;;;;;;;;;10153546;28;20500;-61
2022/08/06 14:23:19;;;;;;;5.82;4.15;;;;;;;;;;10153906;28;20051;-61
2022/08/06 14:28:21;;;;;;;5.68;4.13;;;;;;;;;;10153325;28;20069;-60
2022/08/06 14:33:21;;;;;;;5.30;4.80;;;;;;;;;;10153683;28;20050;-61
2022/08/06 14:38:23;;;;;;;6.10;5.25;;;;;;;;;;10153533;28;20098;-61
2022/08/06 14:48:54;;;;;;;4.57;4.18;;;;;;;;;;10153210;28;20112;-61
2022/08/06 14:53:55;;;;;;;3.85;3.55;;;;;;;;;;10153640;28;20053;-60
2022/08/06 14:58:55;;;;;;;5.80;4.55;;;;;;;;;;10152987;28;20073;-61
2022/08/06 15:03:54;;;;;;;7.13;4.13;;;;;;;;;;10151962;28;20073;-60
2022/08/06 15:08:52;;;;;;;4.97;4.40;;;;;;;;;;10153161;28;20558;-58
2022/08/06 15:13:50;;;;;;;9.68;6.82;;;;;;;;;;10153296;28;20046;-61
2022/08/06 15:18:52;;;;;;;5.15;4.65;;;;;;;;;;10152562;28;20454;-61
2022/08/06 15:24:10;;;;;;;6.97;5.00;;;;;;;;;;10153111;28;20070;-61
2022/08/06 15:29:09;;;;;;;5.30;4.80;;;;;;;;;;10153222;28;20046;-60
2022/08/06 15:34:14;;;;;;;9.95;4.60;;;;;;;;;;10152209;28;20073;-60
2022/08/06 15:39:24;;;;;;;8.32;5.60;;;;;;;;;;10153305;28;20074;-60
2022/08/06 15:44:42;;;;;;;7.05;5.22;;;;;;;;;;10153289;28;20511;-62
2022/08/06 15:49:42;;;;;;;6.88;4.68;;;;;;;;;;10153171;28;20077;-62
2022/08/06 15:55:00;;;;;;;6.85;4.68;;;;;;;;;;10152668;28;20065;-60
2022/08/06 16:00:13;;;;;;;4.95;4.43;;;;;;;;;;10152666;28;20075;-60
2022/08/06 16:05:16;;;;;;;8.00;4.70;;;;;;;;;;10152305;28;20078;-62
2022/08/06 16:10:35;;;;;;;8.13;5.18;;;;;;;;;;10150800;28;20078;-61
2022/08/06 16:15:37;;;;;;;;;;;;;;;;;;10159095;28;20078;-60
2022/08/06 16:20:37;;;;;;;9.02;5.10;;;;;;;;;;10158685;28;19922;-61
2022/08/06 16:25:37;;;;;;;4.88;4.38;;;;;;;;;;10158168;28;20066;-60
2022/08/06 16:30:56;;;;;;;8.90;4.95;;;;;;;;;;10150060;28;20069;-60
2022/08/06 16:36:13;;;;;;;6.20;5.15;;;;;;;;;;10129471;28;20130;-62
2022/08/06 16:41:13;;;;;;;8.13;5.45;;;;;;;;;;10143910;28;20278;-60
2022/08/06 16:46:11;;;;;;;8.40;6.57;;;;;;;;;;10154628;28;20473;-59
2022/08/06 16:51:18;;;;;;;8.18;6.50;;;;;;;;;;10149367;28;20073;-60
2022/08/06 16:56:36;;;;;;;11.45;7.18;;;;;;;;;;10123327;28;20067;-60
2022/08/06 17:01:40;;;;;;;9.18;5.35;;;;;;;;;;10153764;28;20074;-60
2022/08/06 17:07:01;;;;;;;5.68;5.15;;;;;;;;;;10146506;28;20088;-60
2022/08/06 17:12:01;;;;;;;8.13;5.15;;;;;;;;;;10137142;28;20065;-59
2022/08/06 17:17:03;;;;;;;12.90;7.95;;;;;;;;;;10145748;28;20086;-59
2022/08/06 17:22:06;;;;;;;9.68;5.55;;;;;;;;;;10149821;28;20459;-59
2022/08/06 17:27:05;;;;;;;9.88;6.28;;;;;;;;;;10135566;28;20465;-59
2022/08/06 17:32:06;;;;;;;11.43;6.55;;;;;;;;;;10147754;28;20134;-61
2022/08/06 17:37:26;;;;;;;9.18;6.00;;;;;;;;;;10135698;28;20500;-57
2022/08/06 17:42:44;;;;;;;12.80;8.52;;;;;;;;;;10132297;28;20082;-60
2022/08/06 17:47:46;;;;;;;12.05;6.85;;;;;;;;;;10130714;28;20092;-60
2022/08/06 17:52:49;;;;;;;6.65;6.05;;;;;;;;;;10146633;28;20524;-60
2022/08/06 17:57:49;;;;;;;12.20;7.32;;;;;;;;;;10133876;28;20070;-59
2022/08/06 18:03:08;;;;;;;9.48;6.70;;;;;;;;;;10150609;28;20081;-59
2022/08/06 18:08:21;;;;;;;10.02;6.82;;;;;;;;;;10150731;28;20072;-59
2022/08/06 18:13:33;;;;;;;10.27;8.07;;;;;;;;;;10145440;28;20081;-60
2022/08/06 18:18:51;;;;;;;8.85;6.82;;;;;;;;;;10143532;28;20085;-60
2022/08/06 18:23:51;;;;;;;7.60;6.85;;;;;;;;;;10143419;28;20460;-60
2022/08/06 18:28:54;;;;;;;9.20;6.40;;;;;;;;;;10148860;28;20468;-60
2022/08/06 18:33:54;;;;;;;8.48;7.50;;;;;;;;;;10138113;28;20050;-59
2022/08/06 18:38:55;;;;;;;12.02;7.07;;;;;;;;;;10141785;28;20081;-60
2022/08/06 18:43:54;;;;;;;7.28;6.57;;;;;;;;;;10115972;28;20070;-59
2022/08/06 18:48:55;;;;;;;7.28;6.57;;;;;;;;;;10138658;28;20109;-59
2022/08/06 18:53:56;;;;;;;8.07;6.32;;;;;;;;;;10150420;28;20062;-60
2022/08/06 18:58:59;;;;;;;6.05;5.55;;;;;;;;;;10148112;28;20080;-60
2022/08/06 19:03:57;;;;;;;8.13;7.03;;;;;;;;;;10148158;28;20095;-60
2022/08/06 19:08:59;;;;;;;8.75;7.00;;;;;;;;;;10143938;28;20072;-60
2022/08/06 19:13:58;;;;;;;7.57;6.88;;;;;;;;;;10143754;28;20108;-60
2022/08/06 19:19:17;;;;;;;7.22;6.18;;;;;;;;;;10133034;28;20159;-60
2022/08/06 19:24:37;;;;;;;6.93;6.28;;;;;;;;;;10126756;28;20054;-59
2022/08/06 19:29:37;;;;;;;7.70;6.65;;;;;;;;;;10133710;28;20082;-60
2022/08/06 19:34:56;;;;;;;8.75;6.85;;;;;;;;;;10139868;28;20484;-59
2022/08/06 19:45:15;;;;;;;21.48;19.15;;;;;;;;;;10146967;28;20074;-60
2022/08/06 19:50:14;;;;;;;17.73;15.55;;;;;;;;;;10152706;28;20077;-60
2022/08/06 19:55:14;;;;;;;10.15;9.15;;;;;;;;;;10155990;28;20077;-60
2022/08/06 20:00:33;;;;;;;8.35;6.80;;;;;;;;;;10154490;28;20089;-60
2022/08/06 20:05:51;;;;;;;8.38;6.47;;;;;;;;;;10153886;28;20069;-60
2022/08/06 20:11:12;;;;;;;7.68;6.53;;;;;;;;;;10154604;28;20495;-60
2022/08/06 20:16:30;;;;;;;6.47;5.88;;;;;;;;;;10142328;28;20492;-59
2022/08/06 20:21:29;;;;;;;6.78;6.18;;;;;;;;;;10147926;28;20074;-59
2022/08/06 20:26:41;;;;;;;6.75;5.65;;;;;;;;;;10133661;28;20053;-60
2022/08/06 20:31:56;;;;;;;6.35;5.80;;;;;;;;;;10150079;28;20059;-59
2022/08/06 20:36:54;;;;;;;7.28;6.57;;;;;;;;;;10137458;28;20063;-60
2022/08/06 20:41:57;;;;;;;8.05;6.43;;;;;;;;;;10138233;28;20097;-60
2022/08/06 20:47:06;;;;;;;8.95;6.05;;;;;;;;;;10136953;28;20101;-61
2022/08/06 20:52:25;;;;;;;6.85;6.32;;;;;;;;;;10141426;28;20070;-59
2022/08/06 20:57:33;;;;;;;7.25;6.53;;;;;;;;;;10137588;28;20070;-59
2022/08/06 21:02:38;;;;;;;9.55;6.40;;;;;;;;;;10137187;28;20100;-60
2022/08/06 21:07:52;;;;;;;6.22;5.72;;;;;;;;;;10144463;28;20072;-60
2022/08/06 21:12:56;;;;;;;6.68;6.07;;;;;;;;;;10121654;28;20066;-61
2022/08/06 21:17:59;;;;;;;7.22;6.53;;;;;;;;;;10136514;28;20080;-60
2022/08/06 21:22:58;;;;;;;7.07;6.28;;;;;;;;;;10136969;28;20508;-60
2022/08/06 21:27:58;;;;;;;7.57;6.70;;;;;;;;;;10136483;28;20066;-59
2022/08/06 21:32:57;;;;;;;12.30;8.05;;;;;;;;;;10136566;28;20070;-59
2022/08/06 21:38:03;;;;;;;9.27;7.22;;;;;;;;;;10135629;28;20465;-59
2022/08/06 21:43:07;;;;;;;9.43;6.88;;;;;;;;;;10142703;28;20046;-60
2022/08/06 21:48:08;;;;;;;9.32;6.50;;;;;;;;;;10137296;28;20077;-60
2022/08/06 21:53:10;;;;;;;8.07;6.97;;;;;;;;;;10137229;28;20066;-59
2022/08/06 21:58:30;;;;;;;11.80;6.97;;;;;;;;;;10131698;28;20076;-60
2022/08/06 22:03:28;;;;;;;12.02;8.40;;;;;;;;;;10134798;28;20072;-60
2022/08/06 22:08:47;;;;;;;8.10;6.47;;;;;;;;;;10135007;28;20078;-60
2022/08/06 22:13:53;;;;;;;7.90;7.10;;;;;;;;;;10134707;28;20062;-60
2022/08/06 22:18:58;;;;;;;8.20;6.93;;;;;;;;;;10138572;28;20520;-60
2022/08/06 22:23:56;;;;;;;7.78;7.07;;;;;;;;;;10133044;28;20076;-60
2022/08/06 22:28:57;;;;;;;10.85;7.30;;;;;;;;;;10134791;28;20440;-59
2022/08/06 22:33:57;;;;;;;7.75;7.05;;;;;;;;;;10137730;28;20073;-60
2022/08/06 22:39:02;;;;;;;8.00;7.28;;;;;;;;;;10137448;28;20070;-60
2022/08/06 22:44:02;;;;;;;8.27;6.80;;;;;;;;;;10134475;28;20065;-59
2022/08/06 22:49:00;;;;;;;9.73;8.45;;;;;;;;;;10138090;28;20074;-60
2022/08/06 22:53:58;;;;;;;9.38;7.90;;;;;;;;;;10137047;28;20069;-60
2022/08/06 22:59:18;;;;;;;8.50;7.40;;;;;;;;;;10135815;28;20099;-59
2022/08/06 23:04:36;;;;;;;8.30;7.20;;;;;;;;;;10134813;28;20055;-61
2022/08/06 23:09:34;;;;;;;8.05;7.25;;;;;;;;;;10116173;28;20078;-61
2022/08/06 23:14:35;;;;;;;10.70;7.60;;;;;;;;;;10137008;28;20460;-60
2022/08/06 23:19:34;;;;;;;11.77;7.95;;;;;;;;;;10133273;28;20082;-61
2022/08/06 23:24:53;;;;;;;9.27;7.75;;;;;;;;;;10145740;28;20077;-61
2022/08/06 23:30:13;;;;;;;8.88;7.25;;;;;;;;;;10142613;28;20089;-61
2022/08/06 23:35:18;;;;;;;8.82;8.00;;;;;;;;;;10141661;28;20074;-60
2022/08/06 23:40:34;;;;;;;8.13;7.38;;;;;;;;;;10141416;28;20085;-60
2022/08/06 23:45:34;;;;;;;9.32;7.47;;;;;;;;;;10141832;28;20077;-60
2022/08/06 23:50:33;;;;;;;9.95;7.60;;;;;;;;;;10140301;28;20538;-60
2022/08/06 23:55:35;;;;;;;8.98;7.97;;;;;;;;;;10141499;28;20073;-61
